sensor_id;sensor_type;location;lat;lon;timestamp;pressure;altitude;pressure_sealevel;temperature;humidity
13690;BME280;6917;52.194;9.894;2023-02-11T00:01:42;101939.47;;;5.17;97.63
13690;BME280;6917;52.194;9.894;2023-02-11T00:04:08;101943.00;;;5.18;97.38
13690;BME280;6917;52.194;9.894;2023-02-11T00:06:34;101930.84;;;5.20;97.53
13690;BME280;6917;52.194;9.894;2023-02-11T00:09:00;101949.00;;;5.20;97.44
13690;BME280;6917;52.194;9.894;2023-02-11T00:11:27;101940.03;;;5.19;97.65
13690;BME280;6917;52.194;9.894;2023-02-11T00:13:55;101935.25;;;5.21;97.82
13690;BME280;6917;52.194;9.894;2023-02-11T00:16:20;101915.66;;;5.19;97.81
13690;BME280;6917;52.194;9.894;2023-02-11T00:18:46;101913.44;;;5.16;98.20
13690;BME280;6917;52.194;9.894;2023-02-11T00:21:14;101905.56;;;5.15;98.42
13690;BME280;6917;52.194;9.894;2023-02-11T00:23:39;101890.69;;;5.17;98.29
13690;BME280;6917;52.194;9.894;2023-02-11T00:28:42;101906.47;;;5.20;98.90
13690;BME280;6917;52.194;9.894;2023-02-11T00:31:07;101920.00;;;5.20;98.65
13690;BME280;6917;52.194;9.894;2023-02-11T00:33:32;101936.06;;;5.22;99.12
13690;BME280;6917;52.194;9.894;2023-02-11T00:36:03;101939.59;;;5.22;98.91
13690;BME280;6917;52.194;9.894;2023-02-11T00:38:29;101932.53;;;5.21;99.06
13690;BME280;6917;52.194;9.894;2023-02-11T00:40:54;101924.16;;;5.23;99.27
13690;BME280;6917;52.194;9.894;2023-02-11T00:43:19;101922.50;;;5.22;99.50
13690;BME280;6917;52.194;9.894;2023-02-11T00:45:45;101926.72;;;5.29;99.34
13690;BME280;6917;52.194;9.894;2023-02-11T00:48:10;101919.91;;;5.27;99.54
13690;BME280;6917;52.194;9.894;2023-02-11T00:50:35;101927.78;;;5.28;99.71
13690;BME280;6917;52.194;9.894;2023-02-11T00:53:01;101918.59;;;5.29;99.73
13690;BME280;6917;52.194;9.894;2023-02-11T00:55:26;101932.38;;;5.28;99.90
13690;BME280;6917;52.194;9.894;2023-02-11T00:57:51;101942.06;;;5.24;100.00
13690;BME280;6917;52.194;9.894;2023-02-11T01:00:17;101934.63;;;5.19;100.00
13690;BME280;6917;52.194;9.894;2023-02-11T01:02:42;101936.75;;;5.17;100.00
13690;BME280;6917;52.194;9.894;2023-02-11T01:05:07;101933.47;;;5.15;100.00
13690;BME280;6917;52.194;9.894;2023-02-11T01:07:32;101934.53;;;5.14;100.00
13690;BME280;6917;52.194;9.894;2023-02-11T01:09:58;101930.50;;;5.17;100.00
13690;BME280;6917;52.194;9.894;2023-02-11T01:12:24;101937.81;;;5.16;100.00
13690;BME280;6917;52.194;9.894;2023-02-11T01:14:49;101935.09;;;5.16;100.00
13690;BME280;6917;52.194;9.894;2023-02-11T01:17:15;101950.78;;;5.14;100.00
13690;BME280;6917;52.194;9.894;2023-02-11T01:19:40;101931.00;;;5.14;100.00
13690;BME280;6917;52.194;9.894;2023-02-11T01:22:05;101932.31;;;5.11;100.00
13690;BME280;6917;52.194;9.894;2023-02-11T01:24:31;101912.75;;;5.09;100.00
13690;BME280;6917;52.194;9.894;2023-02-11T01:26:56;101916.28;;;5.10;100.00
13690;BME280;6917;52.194;9.894;2023-02-11T01:29:21;101911.13;;;5.08;100.00
13690;BME280;6917;52.194;9.894;2023-02-11T01:31:47;101893.44;;;5.05;100.00
13690;BME280;6917;52.194;9.894;2023-02-11T01:34:13;101902.63;;;5.04;100.00
13690;BME280;6917;52.194;9.894;2023-02-11T01:36:39;101901.47;;;5.00;100.00
13690;BME280;6917;52.194;9.894;2023-02-11T01:39:04;101898.41;;;4.97;100.00
13690;BME280;6917;52.194;9.894;2023-02-11T01:41:29;101888.06;;;4.94;100.00
13690;BME280;6917;52.194;9.894;2023-02-11T01:43:54;101882.88;;;4.92;100.00
13690;BME280;6917;52.194;9.894;2023-02-11T01:46:36;101875.59;;;4.93;100.00
13690;BME280;6917;52.194;9.894;2023-02-11T01:49:10;101876.03;;;4.90;100.00
13690;BME280;6917;52.194;9.894;2023-02-11T01:54:05;101866.84;;;4.91;100.00
13690;BME280;6917;52.194;9.894;2023-02-11T01:56:51;101867.22;;;4.94;100.00
13690;BME280;6917;52.194;9.894;2023-02-11T01:59:43;101869.94;;;4.94;100.00
13690;BME280;6917;52.194;9.894;2023-02-11T02:02:12;101858.59;;;4.97;100.00
13690;BME280;6917;52.194;9.894;2023-02-11T02:04:48;101840.72;;;4.96;100.00
13690;BME280;6917;52.194;9.894;2023-02-11T02:07:24;101844.25;;;4.97;100.00
13690;BME280;6917;52.194;9.894;2023-02-11T02:09:58;101824.47;;;4.96;100.00
13690;BME280;6917;52.194;9.894;2023-02-11T02:12:24;101822.59;;;4.97;100.00
13690;BME280;6917;52.194;9.894;2023-02-11T02:14:49;101814.22;;;4.98;100.00
13690;BME280;6917;52.194;9.894;2023-02-11T02:17:27;101813.38;;;4.98;100.00
13690;BME280;6917;52.194;9.894;2023-02-11T02:23:17;101807.63;;;4.94;100.00
13690;BME280;6917;52.194;9.894;2023-02-11T02:26:11;101793.53;;;4.92;100.00
13690;BME280;6917;52.194;9.894;2023-02-11T02:28:56;101794.81;;;4.90;100.00
13690;BME280;6917;52.194;9.894;2023-02-11T02:34:08;101790.69;;;4.87;100.00
13690;BME280;6917;52.194;9.894;2023-02-11T02:36:50;101790.94;;;4.86;100.00
13690;BME280;6917;52.194;9.894;2023-02-11T02:39:23;101807.75;;;4.88;100.00
13690;BME280;6917;52.194;9.894;2023-02-11T02:41:50;101811.63;;;4.92;100.00
13690;BME280;6917;52.194;9.894;2023-02-11T02:44:18;101833.91;;;4.94;100.00
13690;BME280;6917;52.194;9.894;2023-02-11T02:46:43;101817.66;;;4.94;100.00
13690;BME280;6917;52.194;9.894;2023-02-11T02:49:13;101826.84;;;4.93;100.00
13690;BME280;6917;52.194;9.894;2023-02-11T02:57:33;101803.50;;;4.92;100.00
13690;BME280;6917;52.194;9.894;2023-02-11T03:00:39;101806.00;;;4.93;100.00
13690;BME280;6917;52.194;9.894;2023-02-11T03:06:00;101793.28;;;4.94;100.00
13690;BME280;6917;52.194;9.894;2023-02-11T03:08:44;101794.09;;;4.94;100.00
13690;BME280;6917;52.194;9.894;2023-02-11T03:11:11;101791.63;;;4.93;100.00
13690;BME280;6917;52.194;9.894;2023-02-11T03:13:39;101783.50;;;4.93;100.00
13690;BME280;6917;52.194;9.894;2023-02-11T03:16:14;101783.50;;;4.93;100.00
13690;BME280;6917;52.194;9.894;2023-02-11T03:18:45;101784.34;;;4.93;100.00
13690;BME280;6917;52.194;9.894;2023-02-11T03:21:12;101774.56;;;4.92;100.00
13690;BME280;6917;52.194;9.894;2023-02-11T03:23:45;101764.56;;;4.93;100.00
13690;BME280;6917;52.194;9.894;2023-02-11T03:26:17;101762.66;;;4.93;100.00
13690;BME280;6917;52.194;9.894;2023-02-11T03:28:50;101753.94;;;4.91;100.00
13690;BME280;6917;52.194;9.894;2023-02-11T03:31:26;101751.00;;;4.93;100.00
13690;BME280;6917;52.194;9.894;2023-02-11T03:34:00;101745.00;;;4.91;100.00
13690;BME280;6917;52.194;9.894;2023-02-11T03:36:48;101741.00;;;4.93;100.00
13690;BME280;6917;52.194;9.894;2023-02-11T03:39:19;101741.47;;;4.90;100.00
13690;BME280;6917;52.194;9.894;2023-02-11T03:41:48;101748.75;;;4.90;100.00
13690;BME280;6917;52.194;9.894;2023-02-11T03:44:14;101753.13;;;4.91;100.00
13690;BME280;6917;52.194;9.894;2023-02-11T03:46:43;101729.00;;;4.89;100.00
13690;BME280;6917;52.194;9.894;2023-02-11T03:49:13;101736.53;;;4.87;100.00
13690;BME280;6917;52.194;9.894;2023-02-11T03:51:42;101742.78;;;4.88;100.00
13690;BME280;6917;52.194;9.894;2023-02-11T03:54:16;101741.13;;;4.87;100.00
13690;BME280;6917;52.194;9.894;2023-02-11T03:56:50;101745.72;;;4.86;100.00
13690;BME280;6917;52.194;9.894;2023-02-11T03:59:16;101745.72;;;4.86;100.00
13690;BME280;6917;52.194;9.894;2023-02-11T04:01:42;101755.50;;;4.87;100.00
13690;BME280;6917;52.194;9.894;2023-02-11T04:04:07;101744.66;;;4.87;100.00
13690;BME280;6917;52.194;9.894;2023-02-11T04:06:32;101750.06;;;4.87;100.00
13690;BME280;6917;52.194;9.894;2023-02-11T04:08:58;101758.19;;;4.87;100.00
13690;BME280;6917;52.194;9.894;2023-02-11T04:11:23;101761.47;;;4.89;100.00
13690;BME280;6917;52.194;9.894;2023-02-11T04:13:48;101760.66;;;4.89;100.00
13690;BME280;6917;52.194;9.894;2023-02-11T04:16:14;101767.72;;;4.90;100.00
13690;BME280;6917;52.194;9.894;2023-02-11T04:18:39;101766.91;;;4.89;100.00
13690;BME280;6917;52.194;9.894;2023-02-11T04:21:04;101763.94;;;4.91;100.00
13690;BME280;6917;52.194;9.894;2023-02-11T04:23:30;101765.00;;;4.90;100.00
13690;BME280;6917;52.194;9.894;2023-02-11T04:25:55;101775.28;;;4.88;100.00
13690;BME280;6917;52.194;9.894;2023-02-11T04:28:20;101767.16;;;4.88;100.00
13690;BME280;6917;52.194;9.894;2023-02-11T04:30:45;101776.34;;;4.87;100.00
13690;BME280;6917;52.194;9.894;2023-02-11T04:33:13;101755.41;;;4.82;100.00
13690;BME280;6917;52.194;9.894;2023-02-11T04:35:38;101756.72;;;4.80;100.00
13690;BME280;6917;52.194;9.894;2023-02-11T04:38:03;101753.44;;;4.77;100.00
13690;BME280;6917;52.194;9.894;2023-02-11T04:40:28;101746.34;;;4.76;100.00
13690;BME280;6917;52.194;9.894;2023-02-11T04:42:54;101763.88;;;4.74;100.00
13690;BME280;6917;52.194;9.894;2023-02-11T04:45:19;101760.34;;;4.73;100.00
13690;BME280;6917;52.194;9.894;2023-02-11T04:47:44;101765.78;;;4.73;100.00
13690;BME280;6917;52.194;9.894;2023-02-11T04:50:09;101753.53;;;4.71;100.00
13690;BME280;6917;52.194;9.894;2023-02-11T04:52:35;101758.13;;;4.70;100.00
13690;BME280;6917;52.194;9.894;2023-02-11T04:55:00;101754.84;;;4.68;100.00
13690;BME280;6917;52.194;9.894;2023-02-11T04:57:25;101739.69;;;4.67;100.00
13690;BME280;6917;52.194;9.894;2023-02-11T04:59:50;101742.38;;;4.67;100.00
13690;BME280;6917;52.194;9.894;2023-02-11T05:02:16;101743.22;;;4.68;100.00
13690;BME280;6917;52.194;9.894;2023-02-11T05:04:41;101743.22;;;4.68;100.00
13690;BME280;6917;52.194;9.894;2023-02-11T05:07:06;101744.84;;;4.69;100.00
13690;BME280;6917;52.194;9.894;2023-02-11T05:09:32;101740.25;;;4.69;100.00
13690;BME280;6917;52.194;9.894;2023-02-11T05:11:57;101732.13;;;4.69;100.00
13690;BME280;6917;52.194;9.894;2023-02-11T05:14:22;101738.13;;;4.71;100.00
13690;BME280;6917;52.194;9.894;2023-02-11T05:16:47;101740.84;;;4.71;100.00
13690;BME280;6917;52.194;9.894;2023-02-11T05:19:13;101728.13;;;4.72;100.00
13690;BME280;6917;52.194;9.894;2023-02-11T05:21:38;101741.16;;;4.75;100.00
13690;BME280;6917;52.194;9.894;2023-02-11T05:24:04;101748.22;;;4.76;100.00
13690;BME280;6917;52.194;9.894;2023-02-11T05:26:29;101752.38;;;4.78;100.00
13690;BME280;6917;52.194;9.894;2023-02-11T05:28:55;101741.28;;;4.80;100.00
13690;BME280;6917;52.194;9.894;2023-02-11T05:31:20;101737.28;;;4.83;100.00
13690;BME280;6917;52.194;9.894;2023-02-11T05:33:45;101741.63;;;4.84;100.00
13690;BME280;6917;52.194;9.894;2023-02-11T05:36:12;101753.03;;;4.86;100.00
13690;BME280;6917;52.194;9.894;2023-02-11T05:38:38;101759.25;;;4.86;100.00
13690;BME280;6917;52.194;9.894;2023-02-11T05:41:04;101764.44;;;4.88;100.00
13690;BME280;6917;52.194;9.894;2023-02-11T05:43:31;101760.19;;;4.92;100.00
13690;BME280;6917;52.194;9.894;2023-02-11T05:45:56;101752.41;;;4.95;100.00
13690;BME280;6917;52.194;9.894;2023-02-11T05:48:22;101747.34;;;4.99;100.00
13690;BME280;6917;52.194;9.894;2023-02-11T05:50:47;101753.06;;;5.02;100.00
13690;BME280;6917;52.194;9.894;2023-02-11T05:53:13;101754.47;;;5.05;100.00
13690;BME280;6917;52.194;9.894;2023-02-11T05:55:39;101741.53;;;5.07;100.00
13690;BME280;6917;52.194;9.894;2023-02-11T05:58:05;101758.59;;;5.07;100.00
13690;BME280;6917;52.194;9.894;2023-02-11T06:00:32;101752.38;;;5.07;100.00
13690;BME280;6917;52.194;9.894;2023-02-11T06:02:57;101761.06;;;5.09;100.00
13690;BME280;6917;52.194;9.894;2023-02-11T06:05:22;101765.19;;;5.12;100.00
13690;BME280;6917;52.194;9.894;2023-02-11T06:07:48;101759.75;;;5.12;100.00
13690;BME280;6917;52.194;9.894;2023-02-11T06:10:13;101759.75;;;5.12;100.00
13690;BME280;6917;52.194;9.894;2023-02-11T06:12:39;101762.22;;;5.13;100.00
13690;BME280;6917;52.194;9.894;2023-02-11T06:15:05;101752.22;;;5.14;100.00
13690;BME280;6917;52.194;9.894;2023-02-11T06:17:30;101747.03;;;5.12;100.00
13690;BME280;6917;52.194;9.894;2023-02-11T06:19:58;101745.97;;;5.13;100.00
13690;BME280;6917;52.194;9.894;2023-02-11T06:22:23;101745.97;;;5.13;100.00
13690;BME280;6917;52.194;9.894;2023-02-11T06:24:48;101737.84;;;5.13;100.00
13690;BME280;6917;52.194;9.894;2023-02-11T06:27:14;101749.25;;;5.15;100.00
13690;BME280;6917;52.194;9.894;2023-02-11T06:29:39;101751.13;;;5.15;100.00
13690;BME280;6917;52.194;9.894;2023-02-11T06:32:04;101756.06;;;5.18;100.00
13690;BME280;6917;52.194;9.894;2023-02-11T06:34:30;101755.81;;;5.19;100.00
13690;BME280;6917;52.194;9.894;2023-02-11T06:36:55;101765.38;;;5.22;100.00
13690;BME280;6917;52.194;9.894;2023-02-11T06:39:20;101754.53;;;5.22;100.00
13690;BME280;6917;52.194;9.894;2023-02-11T06:41:45;101762.66;;;5.22;100.00
13690;BME280;6917;52.194;9.894;2023-02-11T06:44:11;101765.38;;;5.22;100.00
13690;BME280;6917;52.194;9.894;2023-02-11T06:46:36;101770.78;;;5.22;100.00
13690;BME280;6917;52.194;9.894;2023-02-11T06:49:01;101763.50;;;5.22;100.00
13690;BME280;6917;52.194;9.894;2023-02-11T06:51:27;101765.38;;;5.22;100.00
13690;BME280;6917;52.194;9.894;2023-02-11T06:53:52;101770.53;;;5.23;100.00
13690;BME280;6917;52.194;9.894;2023-02-11T06:56:21;101776.53;;;5.25;100.00
13690;BME280;6917;52.194;9.894;2023-02-11T06:58:46;101767.09;;;5.28;100.00
13690;BME280;6917;52.194;9.894;2023-02-11T07:01:14;101773.91;;;5.30;100.00
13690;BME280;6917;52.194;9.894;2023-02-11T07:03:41;101773.66;;;5.32;100.00
13690;BME280;6917;52.194;9.894;2023-02-11T07:06:09;101778.59;;;5.35;100.00
13690;BME280;6917;52.194;9.894;2023-02-11T07:08:36;101776.50;;;5.37;100.00
13690;BME280;6917;52.194;9.894;2023-02-11T07:11:09;101763.75;;;5.37;100.00
13690;BME280;6917;52.194;9.894;2023-02-11T07:13:34;101772.47;;;5.40;100.00
13690;BME280;6917;52.194;9.894;2023-02-11T07:16:06;101775.16;;;5.40;100.00
13690;BME280;6917;52.194;9.894;2023-02-11T07:18:31;101772.47;;;5.40;100.00
13690;BME280;6917;52.194;9.894;2023-02-11T07:20:57;101776.00;;;5.40;100.00
13690;BME280;6917;52.194;9.894;2023-02-11T07:23:22;101783.63;;;5.43;100.00
13690;BME280;6917;52.194;9.894;2023-02-11T07:25:47;101795.03;;;5.45;100.00
13690;BME280;6917;52.194;9.894;2023-02-11T07:28:12;101791.84;;;5.48;100.00
13690;BME280;6917;52.194;9.894;2023-02-11T07:30:38;101798.09;;;5.49;100.00
13690;BME280;6917;52.194;9.894;2023-02-11T07:33:03;101802.69;;;5.48;100.00
13690;BME280;6917;52.194;9.894;2023-02-11T07:35:28;101796.44;;;5.48;100.00
13690;BME280;6917;52.194;9.894;2023-02-11T07:37:54;101803.50;;;5.49;100.00
13690;BME280;6917;52.194;9.894;2023-02-11T07:40:19;101799.75;;;5.50;100.00
13690;BME280;6917;52.194;9.894;2023-02-11T07:42:44;101802.22;;;5.51;100.00
13690;BME280;6917;52.194;9.894;2023-02-11T07:45:10;101794.34;;;5.50;100.00
13690;BME280;6917;52.194;9.894;2023-02-11T07:47:35;101798.09;;;5.49;100.00
13690;BME280;6917;52.194;9.894;2023-02-11T07:50:01;101803.50;;;5.49;100.00
13690;BME280;6917;52.194;9.894;2023-02-11T07:52:30;101802.22;;;5.51;100.00
13690;BME280;6917;52.194;9.894;2023-02-11T07:54:55;101808.47;;;5.52;100.00
13690;BME280;6917;52.194;9.894;2023-02-11T07:57:21;101811.16;;;5.52;100.00
13690;BME280;6917;52.194;9.894;2023-02-11T07:59:46;101804.69;;;5.53;100.00
13690;BME280;6917;52.194;9.894;2023-02-11T08:02:11;101803.63;;;5.54;100.00
13690;BME280;6917;52.194;9.894;2023-02-11T08:04:37;101797.44;;;5.58;100.00
13690;BME280;6917;52.194;9.894;2023-02-11T08:07:03;101809.44;;;5.62;100.00
13690;BME280;6917;52.194;9.894;2023-02-11T08:09:29;101803.78;;;5.64;100.00
13690;BME280;6917;52.194;9.894;2023-02-11T08:11:54;101791.88;;;5.65;100.00
13690;BME280;6917;52.194;9.894;2023-02-11T08:14:19;101807.09;;;5.66;100.00
13690;BME280;6917;52.194;9.894;2023-02-11T08:16:45;101797.88;;;5.67;100.00
13690;BME280;6917;52.194;9.894;2023-02-11T08:19:12;101791.97;;;5.70;100.00
13690;BME280;6917;52.194;9.894;2023-02-11T08:21:38;101787.59;;;5.69;100.00
13690;BME280;6917;52.194;9.894;2023-02-11T08:24:04;101792.78;;;5.71;100.00
13690;BME280;6917;52.194;9.894;2023-02-11T08:26:31;101804.78;;;5.75;100.00
13690;BME280;6917;52.194;9.894;2023-02-11T08:28:57;101799.09;;;5.76;100.00
13690;BME280;6917;52.194;9.894;2023-02-11T08:31:25;101800.75;;;5.77;100.00
13690;BME280;6917;52.194;9.894;2023-02-11T08:33:52;101803.22;;;5.79;100.00
13690;BME280;6917;52.194;9.894;2023-02-11T08:36:23;101818.44;;;5.80;100.00
13690;BME280;6917;52.194;9.894;2023-02-11T08:38:49;101815.94;;;5.78;100.00
13690;BME280;6917;52.194;9.894;2023-02-11T08:41:16;101822.22;;;5.79;100.00
13690;BME280;6917;52.194;9.894;2023-02-11T08:43:42;101838.81;;;5.82;100.00
13690;BME280;6917;52.194;9.894;2023-02-11T08:46:11;101834.47;;;5.81;100.00
13690;BME280;6917;52.194;9.894;2023-02-11T08:48:37;101837.16;;;5.81;100.00
13690;BME280;6917;52.194;9.894;2023-02-11T08:51:08;101831.19;;;5.79;100.00
13690;BME280;6917;52.194;9.894;2023-02-11T08:53:34;101839.53;;;5.78;100.00
13690;BME280;6917;52.194;9.894;2023-02-11T08:55:59;101847.19;;;5.81;100.00
13690;BME280;6917;52.194;9.894;2023-02-11T08:58:24;101846.94;;;5.82;100.00
13690;BME280;6917;52.194;9.894;2023-02-11T09:00:50;101839.63;;;5.83;100.00
13690;BME280;6917;52.194;9.894;2023-02-11T09:03:15;101822.28;;;5.84;100.00
13690;BME280;6917;52.194;9.894;2023-02-11T09:05:47;101829.94;;;5.87;100.00
13690;BME280;6917;52.194;9.894;2023-02-11T09:08:15;101826.41;;;5.86;100.00
13690;BME280;6917;52.194;9.894;2023-02-11T09:10:41;101829.94;;;5.87;100.00
13690;BME280;6917;52.194;9.894;2023-02-11T09:13:06;101832.06;;;5.85;100.00
13690;BME280;6917;52.194;9.894;2023-02-11T09:15:32;101844.31;;;5.87;100.00
13690;BME280;6917;52.194;9.894;2023-02-11T09:17:58;101837.59;;;5.90;100.00
13690;BME280;6917;52.194;9.894;2023-02-11T09:20:24;101852.09;;;5.95;100.00
13690;BME280;6917;52.194;9.894;2023-02-11T09:22:50;101848.88;;;5.99;100.00
13690;BME280;6917;52.194;9.894;2023-02-11T09:25:16;101863.00;;;6.01;100.00
13690;BME280;6917;52.194;9.894;2023-02-11T09:27:41;101866.78;;;6.00;100.00
13690;BME280;6917;52.194;9.894;2023-02-11T09:30:07;101864.41;;;6.03;100.00
13690;BME280;6917;52.194;9.894;2023-02-11T09:32:33;101874.28;;;6.09;100.00
13690;BME280;6917;52.194;9.894;2023-02-11T09:34:58;101874.63;;;6.13;100.00
13690;BME280;6917;52.194;9.894;2023-02-11T09:37:23;101873.88;;;6.17;100.00
13690;BME280;6917;52.194;9.894;2023-02-11T09:39:48;101872.28;;;6.21;100.00
13690;BME280;6917;52.194;9.894;2023-02-11T09:42:27;101871.00;;;6.24;100.00
13690;BME280;6917;52.194;9.894;2023-02-11T09:45:01;101877.25;;;6.24;100.00
13690;BME280;6917;52.194;9.894;2023-02-11T09:47:29;101884.56;;;6.24;100.00
13690;BME280;6917;52.194;9.894;2023-02-11T09:50:10;101891.97;;;6.29;100.00
13690;BME280;6917;52.194;9.894;2023-02-11T09:52:50;101899.03;;;6.30;100.00
13690;BME280;6917;52.194;9.894;2023-02-11T09:55:24;101916.72;;;6.32;100.00
13690;BME280;6917;52.194;9.894;2023-02-11T09:57:50;101910.22;;;6.33;100.00
13690;BME280;6917;52.194;9.894;2023-02-11T10:08:12;101924.47;;;6.40;100.00
13690;BME280;6917;52.194;9.894;2023-02-11T10:10:51;101916.88;;;6.42;100.00
13690;BME280;6917;52.194;9.894;2023-02-11T10:13:28;101924.28;;;6.47;100.00
13690;BME280;6917;52.194;9.894;2023-02-11T10:18:57;101944.28;;;6.41;100.00
13690;BME280;6917;52.194;9.894;2023-02-11T10:24:16;101956.78;;;6.42;100.00
13690;BME280;6917;52.194;9.894;2023-02-11T10:26:43;101934.75;;;6.38;100.00
13690;BME280;6917;52.194;9.894;2023-02-11T10:29:32;101928.25;;;6.39;100.00
13690;BME280;6917;52.194;9.894;2023-02-11T10:32:00;101927.44;;;6.39;100.00
13690;BME280;6917;52.194;9.894;2023-02-11T10:34:28;101916.88;;;6.42;100.00
13690;BME280;6917;52.194;9.894;2023-02-11T10:36:53;101922.63;;;6.46;100.00
13690;BME280;6917;52.194;9.894;2023-02-11T10:39:21;101929.97;;;6.45;100.00
13690;BME280;6917;52.194;9.894;2023-02-11T10:45:09;101915.25;;;6.41;100.00
13690;BME280;6917;52.194;9.894;2023-02-11T10:47:41;101898.47;;;6.44;100.00
13690;BME280;6917;52.194;9.894;2023-02-11T10:52:44;101925.44;;;6.51;100.00
13690;BME280;6917;52.194;9.894;2023-02-11T10:57:41;101926.28;;;6.51;100.00
13690;BME280;6917;52.194;9.894;2023-02-11T11:03:20;101900.25;;;6.55;100.00
13690;BME280;6917;52.194;9.894;2023-02-11T11:08:21;101902.72;;;6.57;100.00
13690;BME280;6917;52.194;9.894;2023-02-11T11:11:13;101900.59;;;6.59;100.00
13690;BME280;6917;52.194;9.894;2023-02-11T11:13:52;101908.47;;;6.61;100.00
13690;BME280;6917;52.194;9.894;2023-02-11T11:16:29;101900.31;;;6.61;100.00
13690;BME280;6917;52.194;9.894;2023-02-11T11:21:50;101914.22;;;6.64;100.00
13690;BME280;6917;52.194;9.894;2023-02-11T11:26:57;101904.69;;;6.62;100.00
13690;BME280;6917;52.194;9.894;2023-02-11T11:29:45;101904.13;;;6.60;100.00
13690;BME280;6917;52.194;9.894;2023-02-11T11:32:17;101919.59;;;6.59;100.00
13690;BME280;6917;52.194;9.894;2023-02-11T11:34:51;101915.47;;;6.56;100.00
13690;BME280;6917;52.194;9.894;2023-02-11T11:37:33;101914.41;;;6.57;100.00
13690;BME280;6917;52.194;9.894;2023-02-11T11:42:39;101922.56;;;6.57;100.00
13690;BME280;6917;52.194;9.894;2023-02-11T11:47:47;101927.41;;;6.55;100.00
13690;BME280;6917;52.194;9.894;2023-02-11T11:50:26;101932.84;;;6.55;100.00
13690;BME280;6917;52.194;9.894;2023-02-11T11:55:47;101924.69;;;6.55;100.00
13690;BME280;6917;52.194;9.894;2023-02-11T11:58:19;101920.09;;;6.56;100.00
13690;BME280;6917;52.194;9.894;2023-02-11T12:06:20;101926.84;;;6.53;100.00
13690;BME280;6917;52.194;9.894;2023-02-11T12:09:12;101928.47;;;6.54;100.00
13690;BME280;6917;52.194;9.894;2023-02-11T12:12:05;101922.81;;;6.56;100.00
13690;BME280;6917;52.194;9.894;2023-02-11T12:25:42;101913.41;;;6.64;100.00
13690;BME280;6917;52.194;9.894;2023-02-11T12:28:22;101927.56;;;6.66;100.00
13690;BME280;6917;52.194;9.894;2023-02-11T12:39:50;101924.94;;;6.71;100.00
13690;BME280;6917;52.194;9.894;2023-02-11T12:48:23;101936.34;;;6.73;100.00
13690;BME280;6917;52.194;9.894;2023-02-11T12:56:23;101905.66;;;6.72;100.00
13690;BME280;6917;52.194;9.894;2023-02-11T12:58:53;101907.31;;;6.73;100.00
13690;BME280;6917;52.194;9.894;2023-02-11T13:01:23;101914.63;;;6.73;100.00
13690;BME280;6917;52.194;9.894;2023-02-11T13:04:30;101927.13;;;6.74;100.00
13690;BME280;6917;52.194;9.894;2023-02-11T13:07:02;101924.41;;;6.74;100.00
13690;BME280;6917;52.194;9.894;2023-02-11T13:09:35;101915.97;;;6.70;100.00
13690;BME280;6917;52.194;9.894;2023-02-11T13:12:05;101926.81;;;6.70;100.00
13690;BME280;6917;52.194;9.894;2023-02-11T13:14:51;101923.28;;;6.70;100.00
13690;BME280;6917;52.194;9.894;2023-02-11T13:17:29;101919.75;;;6.69;100.00
13690;BME280;6917;52.194;9.894;2023-02-11T13:20:05;101928.72;;;6.70;100.00
13690;BME280;6917;52.194;9.894;2023-02-11T13:22:43;101937.44;;;6.72;100.00
13690;BME280;6917;52.194;9.894;2023-02-11T13:25:42;101935.28;;;6.74;100.00
13690;BME280;6917;52.194;9.894;2023-02-11T13:28:45;101928.22;;;6.73;100.00
13690;BME280;6917;52.194;9.894;2023-02-11T13:31:13;101932.00;;;6.72;100.00
13690;BME280;6917;52.194;9.894;2023-02-11T13:33:41;101939.06;;;6.73;100.00
13690;BME280;6917;52.194;9.894;2023-02-11T13:36:15;101939.91;;;6.73;100.00
13690;BME280;6917;52.194;9.894;2023-02-11T13:38:51;101945.06;;;6.75;100.00
13690;BME280;6917;52.194;9.894;2023-02-11T13:41:22;101944.25;;;6.74;100.00
13690;BME280;6917;52.194;9.894;2023-02-11T13:46:59;101943.13;;;6.70;100.00
13690;BME280;6917;52.194;9.894;2023-02-11T13:49:38;101940.41;;;6.70;100.00
13690;BME280;6917;52.194;9.894;2023-02-11T13:52:22;101936.88;;;6.70;100.00
13690;BME280;6917;52.194;9.894;2023-02-11T13:54:50;101938.75;;;6.69;100.00
13690;BME280;6917;52.194;9.894;2023-02-11T14:12:15;101936.44;;;6.78;100.00
13690;BME280;6917;52.194;9.894;2023-02-11T14:19:59;101939.25;;;6.83;100.00
13690;BME280;6917;52.194;9.894;2023-02-11T14:22:39;101943.03;;;6.82;100.00
13690;BME280;6917;52.194;9.894;2023-02-11T14:25:22;101944.66;;;6.83;100.00
13690;BME280;6917;52.194;9.894;2023-02-11T14:27:54;101946.88;;;6.86;100.00
13690;BME280;6917;52.194;9.894;2023-02-11T14:30:41;101955.03;;;6.86;100.00
13690;BME280;6917;52.194;9.894;2023-02-11T14:36:12;101954.28;;;6.91;100.00
13690;BME280;6917;52.194;9.894;2023-02-11T14:38:54;101954.84;;;6.93;100.00
13690;BME280;6917;52.194;9.894;2023-02-11T14:41:25;101949.66;;;6.91;100.00
13690;BME280;6917;52.194;9.894;2023-02-11T14:43:54;101961.34;;;6.92;100.00
13690;BME280;6917;52.194;9.894;2023-02-11T14:46:22;101952.38;;;6.91;100.00
13690;BME280;6917;52.194;9.894;2023-02-11T14:48:51;101953.19;;;6.92;100.00
13690;BME280;6917;52.194;9.894;2023-02-11T14:51:34;101966.31;;;6.95;100.00
13690;BME280;6917;52.194;9.894;2023-02-11T14:54:10;101956.25;;;6.95;100.00
13690;BME280;6917;52.194;9.894;2023-02-11T14:56:37;101974.22;;;6.96;100.00
13690;BME280;6917;52.194;9.894;2023-02-11T14:59:15;101967.69;;;6.97;100.00
13690;BME280;6917;52.194;9.894;2023-02-11T15:01:45;101970.16;;;6.99;100.00
13690;BME280;6917;52.194;9.894;2023-02-11T15:04:30;101985.38;;;7.00;100.00
13690;BME280;6917;52.194;9.894;2023-02-11T15:06:58;101988.94;;;7.00;100.00
13690;BME280;6917;52.194;9.894;2023-02-11T15:12:02;101984.56;;;6.99;100.00
13690;BME280;6917;52.194;9.894;2023-02-11T15:14:32;101991.91;;;6.99;100.00
13690;BME280;6917;52.194;9.894;2023-02-11T15:17:01;101983.50;;;7.00;100.00
13690;BME280;6917;52.194;9.894;2023-02-11T15:21:55;101999.59;;;7.07;100.00